Heber City, UT

1:45 PM MDT on August 30, 2015 (GMT -0600)
Noble Vista | | Change Station
CLOSE
Current Station
Personal Weather Station
Location: Heber City, UT
Elevation: 5699 ft
Nearby Weather Stations

Elev 5699 ft 40.50 °N, 111.40 °W | Updated 5 seconds ago

Clear
Clear
81.7 °F
Feels Like 80 °F
N
1.1
Wind Variable Wind from WSW
Gusts 2.5 mph

Today
High -- | Low -- °F
--% Chance of Precip.
Yesterday
High -- | Low -- °F
Precip. -- in
6:50 AM 8:01 PM
Full, 98% visible
Pressure 30.06 in
Visibility 10.0 miles
Clouds Clear
Heat Index 80 °F
Dew Point 44 °F
Humidity 26%
Rainfall 0.00 in
Snow Depth Not available.
UV 4.0 out of 12
Pollen 8.90 out of 12
Air Quality Not available.
Flu Activity Not available.
METAR K36U 301935Z AUTO 24016G23KT 10SM CLR 28/05 A3006 RMK AO2 PWINO
Pressure 30.06 in
Visibility 10.0 miles
Clouds Clear
Heat Index 80 °F
Dew Point 44 °F
Humidity 26%
Rainfall 0.00 in
Snow Depth Not available.
UV 4.0 out of 12
Pollen 8.90 out of 12
Air Quality Not available.
Flu Activity Not available.
METAR K36U 301935Z AUTO 24016G23KT 10SM CLR 28/05 A3006 RMK AO2 PWINO
Nowcast | as of 1:38 PM MDT on August 30, 2015

Scattered showers and thunderstorms will continue to develop this afternoon over portions of southern...central and northeast Utah. The strongest storms at 130 PM were located just east of Wellington...and over southeast Washington County. Some of the stronger storms may produce brief heavy rain...small hail...strong gusty winds and frequent lightning.

×

10-Day Weather Forecast

×

Almanac

Astronomy

Aug. 30, 2015 Rise Set
Actual Time
Civil Twilight
Nautical Twilight
Astronomical Twilight
Moon
Length of Visible Light
Length of Day
Tomorrow will be .
, % of the Moon is Illuminated

Today's Extremes

State Highs State Lows

Community

WunderPhotos

Upload Photos

1,851,041 photos uploaded!

WunderBlogs® & News

Nearby

Air Quality

  Air Quality AQ Index Pollutant
Not available.

Snow Depth

Station Depth Elevation

Earthquake Activity

City Distance Mag. Time & Date
Minimum magnitude displayed is 2.5.

Coastal Water Temperatures

Place Temperature

Stations

Nearby Weather Stations

Station Location Temp. Windchill Dew Point Humidity Wind Precip. Elev Updated Type